createdAt,value
2018-09-29T00:00:07.136Z,100870.62
2018-09-29T00:02:35.171Z,100867.50
2018-09-29T00:05:03.067Z,100875.22
2018-09-29T00:07:30.869Z,100878.17
2018-09-29T00:09:58.702Z,100865.20
2018-09-29T00:12:26.635Z,100875.72
2018-09-29T00:14:54.427Z,100872.11
2018-09-29T00:17:22.447Z,100871.29
2018-09-29T00:19:50.232Z,100880.97
2018-09-29T00:22:18.023Z,100885.09
2018-09-29T00:24:45.827Z,100894.62
2018-09-29T00:27:13.607Z,100889.80
2018-09-29T00:29:44.904Z,100884.72
2018-09-29T00:32:12.757Z,100882.76
2018-09-29T00:34:40.563Z,100884.23
2018-09-29T00:37:08.391Z,100885.71
2018-09-29T00:39:36.183Z,100878.50
2018-09-29T00:42:04.028Z,100881.27
2018-09-29T00:44:31.821Z,100876.35
2018-09-29T00:46:59.616Z,100877.34
2018-09-29T00:49:27.436Z,100875.67
2018-09-29T00:51:55.218Z,100874.88
2018-09-29T00:54:23.053Z,100874.53
2018-09-29T00:56:51.138Z,100874.52
2018-09-29T00:59:18.936Z,100873.02
2018-09-29T01:01:46.747Z,100864.48
2018-09-29T01:04:14.530Z,100870.03
2018-09-29T01:06:42.334Z,100870.49
2018-09-29T01:09:10.166Z,100871.13
2018-09-29T01:11:38.087Z,100869.48
2018-09-29T01:14:06.002Z,100869.32
2018-09-29T01:16:33.804Z,100866.53
2018-09-29T01:19:01.701Z,100859.96
2018-09-29T01:21:29.534Z,100863.19
2018-09-29T01:23:57.329Z,100859.19
2018-09-29T01:26:25.126Z,100860.61
2018-09-29T01:28:52.912Z,100862.05
2018-09-29T01:31:20.703Z,100858.11
2018-09-29T01:33:48.542Z,100850.23
2018-09-29T01:36:16.307Z,100848.72
2018-09-29T01:38:44.079Z,100840.55
2018-09-29T01:41:11.867Z,100837.73
2018-09-29T01:43:39.720Z,100840.12
2018-09-29T01:46:07.541Z,100835.85
2018-09-29T01:48:35.360Z,100836.05
2018-09-29T01:51:03.147Z,100835.36
2018-09-29T01:53:30.991Z,100830.64
2018-09-29T01:55:58.775Z,100828.43
2018-09-29T01:58:27.114Z,100828.06
2018-09-29T02:00:54.891Z,100821.47
2018-09-29T02:03:22.891Z,100812.89
2018-09-29T02:05:50.694Z,100809.61
2018-09-29T02:08:18.483Z,100807.06
2018-09-29T02:10:46.331Z,100799.80
2018-09-29T02:13:14.155Z,100798.78
2018-09-29T02:15:41.927Z,100793.85
2018-09-29T02:18:09.674Z,100789.84
2018-09-29T02:20:37.554Z,100782.76
2018-09-29T02:23:06.299Z,100789.41
2018-09-29T02:25:34.192Z,100778.45
2018-09-29T02:28:05.327Z,100780.88
2018-09-29T02:30:33.348Z,100778.95
2018-09-29T02:33:01.303Z,100783.22
2018-09-29T02:35:29.169Z,100778.25
2018-09-29T02:37:56.910Z,100781.36
2018-09-29T02:40:24.803Z,100786.58
2018-09-29T02:42:52.567Z,100787.77
2018-09-29T02:45:20.627Z,100781.66
2018-09-29T02:47:48.403Z,100775.30
2018-09-29T02:50:16.177Z,100775.92
2018-09-29T02:52:43.992Z,100774.93
2018-09-29T02:55:11.774Z,100778.98
2018-09-29T02:57:39.591Z,100778.94
2018-09-29T03:00:07.439Z,100781.34
2018-09-29T03:02:35.209Z,100791.73
2018-09-29T03:08:39.655Z,100792.89
2018-09-29T03:11:14.418Z,100789.27
2018-09-29T03:13:42.212Z,100792.23
2018-09-29T03:16:10.043Z,100794.48
2018-09-29T03:18:37.828Z,100794.41
2018-09-29T03:21:06.324Z,100796.59
2018-09-29T03:23:34.119Z,100799.16
2018-09-29T03:26:01.887Z,100799.18
2018-09-29T03:28:29.691Z,100798.09
2018-09-29T03:30:57.762Z,100797.52
2018-09-29T03:33:25.601Z,100795.34
2018-09-29T03:35:53.405Z,100791.59
2018-09-29T03:38:21.169Z,100796.73
2018-09-29T03:40:48.958Z,100800.82
2018-09-29T03:43:16.744Z,100802.87
2018-09-29T03:45:44.547Z,100795.03
2018-09-29T03:48:12.803Z,100790.35
2018-09-29T03:50:40.591Z,100796.56
2018-09-29T03:53:08.391Z,100793.30
2018-09-29T03:55:36.401Z,100793.24
2018-09-29T03:58:04.312Z,100797.98
2018-09-29T04:00:32.108Z,100798.23
2018-09-29T04:03:02.756Z,100805.58
2018-09-29T04:05:30.543Z,100804.92
2018-09-29T04:07:58.335Z,100794.30
2018-09-29T04:10:26.268Z,100796.25
2018-09-29T04:12:58.329Z,100794.54
2018-09-29T04:15:26.127Z,100791.55
2018-09-29T04:17:53.926Z,100793.11
2018-09-29T04:20:21.783Z,100789.14
2018-09-29T04:22:49.891Z,100791.62
2018-09-29T04:25:17.802Z,100792.05
2018-09-29T04:27:45.599Z,100793.77
2018-09-29T04:30:13.888Z,100794.62
2018-09-29T04:32:41.730Z,100793.49
2018-09-29T04:35:09.520Z,100792.77
2018-09-29T04:37:37.471Z,100803.26
2018-09-29T04:40:05.556Z,100793.47
2018-09-29T04:42:33.311Z,100792.77
2018-09-29T04:45:01.609Z,100794.00
2018-09-29T04:47:29.430Z,100789.74
2018-09-29T04:49:57.331Z,100800.11
2018-09-29T04:52:25.415Z,100799.06
2018-09-29T04:54:53.238Z,100788.78
2018-09-29T04:57:21.012Z,100789.19
2018-09-29T04:59:48.835Z,100792.13
2018-09-29T05:02:16.755Z,100797.70
2018-09-29T05:04:44.904Z,100792.18
2018-09-29T05:07:12.769Z,100789.61
2018-09-29T05:09:40.579Z,100792.56
2018-09-29T05:12:08.686Z,100804.73
2018-09-29T05:14:36.436Z,100808.28
2018-09-29T05:17:04.271Z,100805.86
2018-09-29T05:19:32.251Z,100809.26
2018-09-29T05:22:00.052Z,100820.69
2018-09-29T05:24:28.190Z,100812.36
2018-09-29T05:26:56.275Z,100812.47
2018-09-29T05:29:24.152Z,100817.25
2018-09-29T05:31:51.971Z,100815.19
2018-09-29T05:34:19.754Z,100810.52
2018-09-29T05:36:47.581Z,100819.67
2018-09-29T05:39:15.384Z,100824.98
2018-09-29T05:41:43.246Z,100835.13
2018-09-29T05:44:11.042Z,100834.92
2018-09-29T05:46:38.846Z,100836.15
2018-09-29T05:49:07.211Z,100836.23
2018-09-29T05:51:35.021Z,100841.26
2018-09-29T05:54:02.873Z,100838.99
2018-09-29T05:56:30.866Z,100848.33
2018-09-29T05:58:58.677Z,100845.58
2018-09-29T06:01:26.628Z,100848.83
2018-09-29T06:03:57.719Z,100852.02
2018-09-29T06:06:25.514Z,100851.70
2018-09-29T06:08:53.331Z,100850.22
2018-09-29T06:11:21.216Z,100852.33
2018-09-29T06:13:49.620Z,100852.88
2018-09-29T06:16:17.516Z,100847.84
2018-09-29T06:18:45.302Z,100848.75
2018-09-29T06:21:13.131Z,100846.77
2018-09-29T06:23:41.014Z,100841.01
2018-09-29T06:26:08.858Z,100842.58
2018-09-29T06:28:36.759Z,100845.20
2018-09-29T06:31:04.570Z,100845.59
2018-09-29T06:33:32.435Z,100844.78
2018-09-29T06:36:00.417Z,100843.28
2018-09-29T06:38:28.200Z,100840.66
2018-09-29T06:40:56.122Z,100846.86
2018-09-29T06:43:23.889Z,100847.97
2018-09-29T06:45:51.795Z,100839.06
2018-09-29T06:48:19.718Z,100837.17
2018-09-29T06:50:47.824Z,100840.42
2018-09-29T06:53:15.583Z,100848.64
2018-09-29T06:55:43.411Z,100846.95
2018-09-29T06:58:11.263Z,100840.23
2018-09-29T07:00:39.011Z,100839.38
2018-09-29T07:03:06.863Z,100844.15
2018-09-29T07:05:34.720Z,100839.58
2018-09-29T07:08:02.507Z,100849.16
2018-09-29T07:10:30.543Z,100852.88
2018-09-29T07:12:58.381Z,100855.13
2018-09-29T07:15:26.275Z,100851.20
2018-09-29T07:17:54.022Z,100848.02
2018-09-29T07:20:21.819Z,100855.23
2018-09-29T07:22:49.599Z,100851.03
2018-09-29T07:25:17.469Z,100852.09
2018-09-29T07:27:45.287Z,100850.09
2018-09-29T07:30:13.226Z,100852.47
2018-09-29T07:32:41.070Z,100850.81
2018-09-29T07:35:09.355Z,100851.72
2018-09-29T07:37:40.131Z,100857.30
2018-09-29T07:40:07.953Z,100854.16
2018-09-29T07:42:35.711Z,100849.63
2018-09-29T07:45:03.648Z,100857.94
2018-09-29T07:47:31.438Z,100859.64
2018-09-29T07:49:59.307Z,100862.12
2018-09-29T07:52:27.128Z,100862.96
2018-09-29T07:54:54.979Z,100859.71
2018-09-29T07:57:22.727Z,100860.94
2018-09-29T07:59:50.598Z,100864.25
2018-09-29T08:02:18.391Z,100868.35
2018-09-29T08:04:46.191Z,100869.78
2018-09-29T08:07:14.017Z,100869.36
2018-09-29T08:09:41.835Z,100867.59
2018-09-29T08:12:09.758Z,100870.75
2018-09-29T08:14:38.086Z,100872.52
2018-09-29T08:17:05.968Z,100862.91
2018-09-29T08:19:33.758Z,100857.80
2018-09-29T08:22:01.723Z,100859.44
2018-09-29T08:24:29.627Z,100860.45
2018-09-29T08:26:57.472Z,100859.64
2018-09-29T08:29:25.274Z,100858.44
2018-09-29T08:31:53.136Z,100860.73
2018-09-29T08:34:20.959Z,100858.18
2018-09-29T08:36:48.753Z,100853.73
2018-09-29T08:39:16.591Z,100853.09
2018-09-29T08:41:44.412Z,100842.73
2018-09-29T08:44:12.261Z,100843.04
2018-09-29T08:46:40.009Z,100844.33
2018-09-29T08:49:07.907Z,100844.22
2018-09-29T08:51:35.800Z,100845.94
2018-09-29T08:54:03.666Z,100835.01
2018-09-29T08:56:31.442Z,100839.29
2018-09-29T08:58:59.242Z,100838.13
2018-09-29T09:01:27.023Z,100830.44
2018-09-29T09:03:54.848Z,100825.92
2018-09-29T09:06:22.653Z,100823.58
2018-09-29T09:08:50.513Z,100821.96
2018-09-29T09:11:18.411Z,100810.48
2018-09-29T09:13:46.192Z,100810.63
2018-09-29T09:16:14.207Z,100802.67
2018-09-29T09:18:41.971Z,100800.70
2018-09-29T09:21:10.337Z,100797.78
2018-09-29T09:23:38.152Z,100798.54
2018-09-29T09:26:06.135Z,100796.84
2018-09-29T09:28:34.251Z,100800.88
2018-09-29T09:31:02.171Z,100794.26
2018-09-29T09:33:30.011Z,100796.29
2018-09-29T09:35:57.847Z,100791.27
2018-09-29T09:38:25.671Z,100791.24
2018-09-29T09:40:53.821Z,100782.31
2018-09-29T09:43:21.622Z,100779.23
2018-09-29T09:45:49.450Z,100781.92
2018-09-29T09:50:50.990Z,100776.13
2018-09-29T09:53:22.067Z,100772.98
2018-09-29T09:55:49.890Z,100770.12
2018-09-29T09:58:17.787Z,100753.44
2018-09-29T10:00:51.164Z,100759.63
2018-09-29T10:03:30.390Z,100762.70
2018-09-29T10:05:58.351Z,100759.24
2018-09-29T10:08:26.162Z,100751.55
2018-09-29T10:10:54.325Z,100749.45
2018-09-29T10:13:22.191Z,100747.84
2018-09-29T10:15:50.229Z,100746.89
2018-09-29T10:18:18.448Z,100745.37
2018-09-29T10:20:46.271Z,100744.01
2018-09-29T10:23:14.063Z,100742.67
2018-09-29T10:25:41.969Z,100739.81
2018-09-29T10:28:09.820Z,100732.49
2018-09-29T10:30:37.687Z,100730.26
2018-09-29T10:33:05.507Z,100727.31
2018-09-29T10:35:33.290Z,100719.36
2018-09-29T10:38:01.672Z,100717.95
2018-09-29T10:40:29.538Z,100720.03
2018-09-29T10:42:57.357Z,100722.05
2018-09-29T10:45:25.184Z,100719.01
2018-09-29T10:47:53.780Z,100713.84
2018-09-29T10:50:21.596Z,100713.58
2018-09-29T10:52:49.428Z,100727.16
2018-09-29T10:55:17.241Z,100709.16
2018-09-29T10:57:45.464Z,100712.86
2018-09-29T11:00:13.267Z,100715.38
2018-09-29T11:02:41.219Z,100707.77
2018-09-29T11:05:09.032Z,100705.28
2018-09-29T11:07:37.098Z,100700.28
2018-09-29T11:10:04.960Z,100698.27
2018-09-29T11:12:32.819Z,100689.47
2018-09-29T11:15:00.770Z,100689.15
2018-09-29T11:17:28.536Z,100686.04
2018-09-29T11:19:56.726Z,100689.84
2018-09-29T11:22:24.642Z,100689.36
2018-09-29T11:24:52.577Z,100676.20
2018-09-29T11:27:20.846Z,100672.11
2018-09-29T11:29:48.711Z,100671.30
2018-09-29T11:32:16.501Z,100665.05
2018-09-29T11:34:44.401Z,100659.95
2018-09-29T11:37:12.989Z,100648.44
2018-09-29T11:39:40.831Z,100654.99
2018-09-29T11:42:08.708Z,100651.72
2018-09-29T11:44:36.845Z,100642.98
2018-09-29T11:47:04.635Z,100635.22
2018-09-29T11:49:32.406Z,100642.28
2018-09-29T11:52:00.251Z,100634.25
2018-09-29T11:54:28.107Z,100631.13
2018-09-29T11:56:56.000Z,100626.06
2018-09-29T11:59:23.848Z,100622.09
2018-09-29T12:01:51.732Z,100617.54
2018-09-29T12:04:19.505Z,100609.08
2018-09-29T12:06:47.356Z,100603.59
2018-09-29T12:09:15.167Z,100597.17
2018-09-29T12:11:43.089Z,100593.36
2018-09-29T12:14:10.923Z,100588.16
2018-09-29T12:16:38.719Z,100590.02
2018-09-29T12:19:06.509Z,100586.80
2018-09-29T12:21:34.275Z,100581.71
2018-09-29T12:24:02.078Z,100582.47
2018-09-29T12:26:29.895Z,100573.06
2018-09-29T12:28:57.678Z,100575.37
2018-09-29T12:31:25.519Z,100572.79
2018-09-29T12:33:53.551Z,100566.34
2018-09-29T12:36:21.843Z,100555.61
2018-09-29T12:38:49.651Z,100563.16
2018-09-29T12:41:17.420Z,100557.45
2018-09-29T12:43:45.255Z,100558.56
2018-09-29T12:46:13.089Z,100557.16
2018-09-29T12:48:40.947Z,100549.55
2018-09-29T12:51:08.820Z,100549.91
2018-09-29T12:53:36.775Z,100547.31
2018-09-29T12:56:07.871Z,100539.41
2018-09-29T12:58:35.646Z,100541.67
2018-09-29T13:01:03.495Z,100539.28
2018-09-29T13:03:31.277Z,100533.03
2018-09-29T13:05:59.208Z,100530.97
2018-09-29T13:08:27.095Z,100528.77
2018-09-29T13:10:55.108Z,100526.77
2018-09-29T13:13:22.916Z,100525.00
2018-09-29T13:15:50.781Z,100519.02
2018-09-29T13:18:18.667Z,100509.76
2018-09-29T13:20:46.467Z,100519.16
2018-09-29T13:23:14.728Z,100511.03
2018-09-29T13:25:42.620Z,100504.92
2018-09-29T13:28:10.503Z,100502.20
2018-09-29T13:30:38.291Z,100496.31
2018-09-29T13:33:06.145Z,100501.31
2018-09-29T13:35:34.024Z,100489.12
2018-09-29T13:38:01.843Z,100491.80
2018-09-29T13:40:29.667Z,100497.11
2018-09-29T13:42:57.839Z,100495.19
2018-09-29T13:45:25.612Z,100495.25
2018-09-29T13:47:53.376Z,100494.52
2018-09-29T13:50:21.207Z,100492.23
2018-09-29T13:52:49.054Z,100486.17
2018-09-29T13:55:16.879Z,100480.11
2018-09-29T13:57:44.686Z,100479.83
2018-09-29T14:00:12.480Z,100480.63
2018-09-29T14:02:40.260Z,100483.08
2018-09-29T14:05:08.064Z,100471.16
2018-09-29T14:07:35.891Z,100471.41
2018-09-29T14:10:03.854Z,100468.45
2018-09-29T14:12:31.674Z,100470.65
2018-09-29T14:14:59.487Z,100462.08
2018-09-29T14:17:27.281Z,100462.75
2018-09-29T14:19:55.161Z,100457.10
2018-09-29T14:22:22.883Z,100458.59
2018-09-29T14:24:50.869Z,100455.62
2018-09-29T14:27:18.720Z,100452.95
2018-09-29T14:29:50.347Z,100454.89
2018-09-29T14:32:18.443Z,100446.61
2018-09-29T14:34:46.281Z,100442.75
2018-09-29T14:37:14.337Z,100440.84
2018-09-29T14:39:42.146Z,100443.79
2018-09-29T14:42:09.971Z,100441.23
2018-09-29T14:44:37.782Z,100442.91
2018-09-29T14:47:05.727Z,100438.30
2018-09-29T14:49:33.533Z,100439.72
2018-09-29T14:52:01.321Z,100437.47
2018-09-29T14:54:29.102Z,100436.31
2018-09-29T14:56:56.912Z,100428.59
2018-09-29T14:59:24.695Z,100434.64
2018-09-29T15:01:52.496Z,100442.14
2018-09-29T15:04:20.308Z,100444.52
2018-09-29T15:06:48.039Z,100429.91
2018-09-29T15:09:15.819Z,100429.18
2018-09-29T15:11:43.998Z,100425.45
2018-09-29T15:14:11.867Z,100427.89
2018-09-29T15:16:39.714Z,100424.02
2018-09-29T15:19:07.520Z,100416.90
2018-09-29T15:21:35.317Z,100416.53
2018-09-29T15:24:03.122Z,100411.19
2018-09-29T15:26:31.212Z,100408.79
2018-09-29T15:28:59.014Z,100410.55
2018-09-29T15:31:30.594Z,100410.41
2018-09-29T15:33:58.371Z,100406.76
2018-09-29T15:36:26.155Z,100403.84
2018-09-29T15:38:53.934Z,100397.73
2018-09-29T15:41:21.720Z,100395.88
2018-09-29T15:43:49.560Z,100398.45
2018-09-29T15:46:17.377Z,100393.95
2018-09-29T15:48:45.303Z,100403.13
2018-09-29T15:51:13.599Z,100398.60
2018-09-29T15:53:41.407Z,100401.45
2018-09-29T15:56:09.240Z,100396.62
2018-09-29T15:58:37.027Z,100399.41
2018-09-29T16:01:04.842Z,100400.17
2018-09-29T16:03:32.879Z,100399.97
2018-09-29T16:06:00.695Z,100403.65
2018-09-29T16:08:28.493Z,100403.75
2018-09-29T16:10:56.321Z,100402.64
2018-09-29T16:13:24.119Z,100399.31
2018-09-29T16:15:52.008Z,100397.78
2018-09-29T16:18:19.813Z,100399.79
2018-09-29T16:20:47.607Z,100403.70
2018-09-29T16:23:15.407Z,100395.88
2018-09-29T16:25:43.229Z,100403.92
2018-09-29T16:28:10.995Z,100403.92
2018-09-29T16:30:38.796Z,100400.39
2018-09-29T16:33:07.018Z,100405.48
2018-09-29T16:35:34.882Z,100401.30
2018-09-29T16:38:02.755Z,100409.94
2018-09-29T16:40:30.762Z,100412.59
2018-09-29T16:43:00.720Z,100408.83
2018-09-29T16:45:28.665Z,100416.13
2018-09-29T16:47:56.801Z,100420.80
2018-09-29T16:50:24.634Z,100424.36
2018-09-29T16:52:52.479Z,100420.39
2018-09-29T16:55:20.318Z,100426.28
2018-09-29T16:57:48.161Z,100428.38
2018-09-29T17:00:16.117Z,100428.84
2018-09-29T17:02:43.930Z,100430.02
2018-09-29T17:05:11.733Z,100428.94
2018-09-29T17:07:39.604Z,100432.67
2018-09-29T17:10:07.429Z,100439.04
2018-09-29T17:12:35.217Z,100437.88
2018-09-29T17:15:03.028Z,100440.08
2018-09-29T17:17:31.126Z,100449.19
2018-09-29T17:19:58.961Z,100447.45
2018-09-29T17:22:26.756Z,100456.30
2018-09-29T17:24:54.933Z,100458.08
2018-09-29T17:27:22.742Z,100459.81
2018-09-29T17:29:50.545Z,100463.47
2018-09-29T17:32:18.495Z,100465.55
2018-09-29T17:34:46.269Z,100462.34
2018-09-29T17:37:14.812Z,100462.93
2018-09-29T17:39:42.867Z,100467.37
2018-09-29T17:42:10.786Z,100464.63
2018-09-29T17:44:38.630Z,100468.20
2018-09-29T17:47:06.447Z,100475.41
2018-09-29T17:49:34.319Z,100475.95
2018-09-29T17:52:02.203Z,100478.05
2018-09-29T17:54:29.998Z,100475.41
2018-09-29T17:56:57.967Z,100484.64
2018-09-29T17:59:26.603Z,100484.64
2018-09-29T18:01:54.501Z,100486.72
2018-09-29T18:04:22.371Z,100489.62
2018-09-29T18:06:50.178Z,100492.64
2018-09-29T18:09:18.007Z,100493.58
2018-09-29T18:11:45.822Z,100482.44
2018-09-29T18:14:13.623Z,100487.53
2018-09-29T18:16:41.504Z,100492.77
2018-09-29T18:19:09.318Z,100492.80
2018-09-29T18:21:37.284Z,100485.61
2018-09-29T18:24:05.031Z,100486.20
2018-09-29T18:26:32.824Z,100496.12
2018-09-29T18:29:00.991Z,100496.42
2018-09-29T18:31:32.962Z,100499.39
2018-09-29T18:34:02.056Z,100504.84
2018-09-29T18:36:29.955Z,100507.01
2018-09-29T18:38:57.863Z,100501.89
2018-09-29T18:41:25.840Z,100504.59
2018-09-29T18:43:53.934Z,100503.62
2018-09-29T18:46:21.984Z,100506.82
2018-09-29T18:48:49.936Z,100510.16
2018-09-29T18:51:17.693Z,100508.58
2018-09-29T18:53:45.551Z,100508.20
2018-09-29T18:56:13.464Z,100506.27
2018-09-29T18:58:41.383Z,100502.77
2018-09-29T19:01:09.187Z,100504.14
2018-09-29T19:03:36.966Z,100506.80
2018-09-29T19:06:04.808Z,100504.87
2018-09-29T19:08:32.731Z,100505.12
2018-09-29T19:11:00.764Z,100505.44
2018-09-29T19:13:28.679Z,100505.44
2018-09-29T19:15:56.475Z,100502.17
2018-09-29T19:18:24.577Z,100506.13
2018-09-29T19:20:52.378Z,100500.59
2018-09-29T19:23:20.183Z,100502.09
2018-09-29T19:25:48.244Z,100503.09
2018-09-29T19:34:30.400Z,100501.23
2018-09-29T19:37:05.419Z,100502.89
2018-09-29T19:39:33.285Z,100500.12
2018-09-29T19:42:01.208Z,100501.94
2018-09-29T19:44:29.175Z,100500.45
2018-09-29T19:46:56.954Z,100501.41
2018-09-29T19:49:24.762Z,100495.47
2018-09-29T19:51:52.588Z,100493.80
2018-09-29T19:54:20.478Z,100492.34
2018-09-29T19:56:48.554Z,100494.30
2018-09-29T19:59:17.104Z,100496.11
2018-09-29T20:01:45.207Z,100502.22
2018-09-29T20:04:13.146Z,100500.91
2018-09-29T20:06:41.139Z,100502.86
2018-09-29T20:09:09.819Z,100499.27
2018-09-29T20:11:37.647Z,100491.56
2018-09-29T20:14:05.780Z,100489.75
2018-09-29T20:16:33.844Z,100491.25
2018-09-29T20:19:01.812Z,100489.16
2018-09-29T20:21:29.695Z,100485.99
2018-09-29T20:23:57.531Z,100482.05
2018-09-29T20:26:25.483Z,100479.95
2018-09-29T20:28:53.381Z,100488.19
2018-09-29T20:31:21.206Z,100483.42
2018-09-29T20:33:48.991Z,100484.59
2018-09-29T20:36:16.884Z,100489.88
2018-09-29T20:38:44.711Z,100480.03
2018-09-29T20:41:12.918Z,100483.16
2018-09-29T20:43:40.899Z,100481.81
2018-09-29T20:46:08.775Z,100482.78
2018-09-29T20:48:36.596Z,100478.87
2018-09-29T20:51:04.415Z,100478.05
2018-09-29T20:53:32.342Z,100472.16
2018-09-29T20:56:00.104Z,100472.97
2018-09-29T20:58:28.236Z,100471.64
2018-09-29T21:00:56.011Z,100461.63
2018-09-29T21:03:23.835Z,100467.08
2018-09-29T21:05:51.653Z,100471.01
2018-09-29T21:08:19.750Z,100465.77
2018-09-29T21:10:47.562Z,100462.49
2018-09-29T21:13:15.479Z,100465.95
2018-09-29T21:15:47.315Z,100462.15
2018-09-29T21:18:15.094Z,100467.73
2018-09-29T21:20:42.893Z,100465.45
2018-09-29T21:23:11.047Z,100465.95
2018-09-29T21:25:38.843Z,100466.59
2018-09-29T21:28:06.731Z,100458.06
2018-09-29T21:30:34.549Z,100456.92
2018-09-29T21:33:02.413Z,100454.46
2018-09-29T21:35:30.685Z,100453.95
2018-09-29T21:37:58.471Z,100450.34
2018-09-29T21:40:26.263Z,100447.89
2018-09-29T21:42:54.271Z,100452.98
2018-09-29T21:45:22.157Z,100440.67
2018-09-29T21:47:49.963Z,100450.20
2018-09-29T21:50:17.774Z,100441.66
2018-09-29T21:52:45.675Z,100443.48
2018-09-29T21:55:13.604Z,100441.83
2018-09-29T21:57:41.394Z,100436.88
2018-09-29T22:00:09.555Z,100437.03
2018-09-29T22:02:37.352Z,100438.53
2018-09-29T22:05:05.199Z,100429.67
2018-09-29T22:07:33.010Z,100432.95
2018-09-29T22:10:00.803Z,100427.23
2018-09-29T22:12:28.603Z,100424.27
2018-09-29T22:14:56.388Z,100426.07
2018-09-29T22:17:28.263Z,100420.48
2018-09-29T22:19:56.219Z,100419.50
2018-09-29T22:22:24.027Z,100411.48
2018-09-29T22:24:51.832Z,100412.77
2018-09-29T22:27:19.707Z,100415.41
2018-09-29T22:29:47.493Z,100412.93
2018-09-29T22:32:15.304Z,100412.58
2018-09-29T22:34:43.102Z,100412.41
2018-09-29T22:37:10.887Z,100408.41
2018-09-29T22:39:38.666Z,100413.19
2018-09-29T22:42:06.695Z,100412.17
2018-09-29T22:44:34.515Z,100408.41
2018-09-29T22:47:02.304Z,100404.98
2018-09-29T22:49:30.156Z,100405.94
2018-09-29T22:51:57.953Z,100408.05
2018-09-29T22:54:25.767Z,100397.05
2018-09-29T22:56:53.578Z,100399.18
2018-09-29T22:59:21.372Z,100402.45
2018-09-29T23:01:49.230Z,100398.47
2018-09-29T23:04:17.027Z,100396.16
2018-09-29T23:06:44.850Z,100398.11
2018-09-29T23:09:12.660Z,100403.32
2018-09-29T23:11:40.527Z,100401.33
2018-09-29T23:14:08.629Z,100406.89
2018-09-29T23:16:36.463Z,100399.33
2018-09-29T23:19:04.349Z,100400.77
2018-09-29T23:21:32.107Z,100404.32
2018-09-29T23:24:00.164Z,100403.50
2018-09-29T23:26:28.250Z,100394.02
2018-09-29T23:28:56.024Z,100396.14
2018-09-29T23:31:23.823Z,100397.09
2018-09-29T23:33:51.608Z,100394.10
2018-09-29T23:36:19.627Z,100396.96
2018-09-29T23:38:47.467Z,100395.48
2018-09-29T23:41:15.260Z,100399.25
2018-09-29T23:43:43.040Z,100393.89
2018-09-29T23:46:14.563Z,100399.37
2018-09-29T23:48:42.351Z,100397.72
2018-09-29T23:51:10.155Z,100397.19
2018-09-29T23:53:37.982Z,100397.39
2018-09-29T23:56:06.091Z,100392.78
2018-09-29T23:58:33.967Z,100386.73
